sensor_id;sensor_type;location;lat;lon;timestamp;temperature;humidity
5675;DHT22;2860;54.284;10.158;2023-07-29T00:01:15;15.30;99.90
5675;DHT22;2860;54.284;10.158;2023-07-29T00:03:41;15.30;99.90
5675;DHT22;2860;54.284;10.158;2023-07-29T00:06:06;15.30;99.90
5675;DHT22;2860;54.284;10.158;2023-07-29T00:08:32;15.20;99.90
5675;DHT22;2860;54.284;10.158;2023-07-29T00:10:57;15.20;99.90
5675;DHT22;2860;54.284;10.158;2023-07-29T00:13:23;15.20;99.90
5675;DHT22;2860;54.284;10.158;2023-07-29T00:15:48;15.10;99.90
5675;DHT22;2860;54.284;10.158;2023-07-29T00:18:14;15.10;99.90
5675;DHT22;2860;54.284;10.158;2023-07-29T00:20:39;15.10;99.90
5675;DHT22;2860;54.284;10.158;2023-07-29T00:23:05;15.00;99.90
5675;DHT22;2860;54.284;10.158;2023-07-29T00:25:30;15.00;99.90
5675;DHT22;2860;54.284;10.158;2023-07-29T00:27:56;15.00;99.90
5675;DHT22;2860;54.284;10.158;2023-07-29T00:30:22;15.00;99.90
5675;DHT22;2860;54.284;10.158;2023-07-29T00:32:47;15.10;99.90
5675;DHT22;2860;54.284;10.158;2023-07-29T00:35:13;15.10;99.90
5675;DHT22;2860;54.284;10.158;2023-07-29T00:37:38;15.20;99.90
5675;DHT22;2860;54.284;10.158;2023-07-29T00:40:20;15.20;99.90
5675;DHT22;2860;54.284;10.158;2023-07-29T00:42:46;15.20;99.90
5675;DHT22;2860;54.284;10.158;2023-07-29T00:45:11;15.20;99.90
5675;DHT22;2860;54.284;10.158;2023-07-29T00:47:38;15.30;99.90
5675;DHT22;2860;54.284;10.158;2023-07-29T00:50:04;15.30;99.90
5675;DHT22;2860;54.284;10.158;2023-07-29T00:52:30;15.30;99.90
5675;DHT22;2860;54.284;10.158;2023-07-29T00:54:55;15.40;99.90
5675;DHT22;2860;54.284;10.158;2023-07-29T00:57:21;15.40;99.90
5675;DHT22;2860;54.284;10.158;2023-07-29T00:59:48;15.40;99.90
5675;DHT22;2860;54.284;10.158;2023-07-29T01:02:14;15.40;99.90
5675;DHT22;2860;54.284;10.158;2023-07-29T01:04:39;15.40;99.90
5675;DHT22;2860;54.284;10.158;2023-07-29T01:07:21;15.50;99.90
5675;DHT22;2860;54.284;10.158;2023-07-29T01:12:48;15.50;99.90
5675;DHT22;2860;54.284;10.158;2023-07-29T01:15:31;15.50;99.90
5675;DHT22;2860;54.284;10.158;2023-07-29T01:18:05;15.50;99.90
5675;DHT22;2860;54.284;10.158;2023-07-29T01:20:34;15.50;99.90
5675;DHT22;2860;54.284;10.158;2023-07-29T01:23:00;15.50;99.90
5675;DHT22;2860;54.284;10.158;2023-07-29T01:25:26;15.40;99.90
5675;DHT22;2860;54.284;10.158;2023-07-29T01:27:52;15.40;99.90
5675;DHT22;2860;54.284;10.158;2023-07-29T01:30:19;15.40;99.90
5675;DHT22;2860;54.284;10.158;2023-07-29T01:32:56;15.40;99.90
5675;DHT22;2860;54.284;10.158;2023-07-29T01:35:35;15.40;99.90
5675;DHT22;2860;54.284;10.158;2023-07-29T01:38:14;15.40;99.90
5675;DHT22;2860;54.284;10.158;2023-07-29T01:40:42;15.40;99.90
5675;DHT22;2860;54.284;10.158;2023-07-29T01:43:08;15.40;99.90
5675;DHT22;2860;54.284;10.158;2023-07-29T01:45:34;15.40;99.90
5675;DHT22;2860;54.284;10.158;2023-07-29T01:48:07;15.40;99.90
5675;DHT22;2860;54.284;10.158;2023-07-29T01:50:33;15.30;99.90
5675;DHT22;2860;54.284;10.158;2023-07-29T01:52:59;15.30;99.90
5675;DHT22;2860;54.284;10.158;2023-07-29T01:55:24;15.30;99.90
5675;DHT22;2860;54.284;10.158;2023-07-29T01:57:50;15.30;99.90
5675;DHT22;2860;54.284;10.158;2023-07-29T02:00:17;15.30;99.90
5675;DHT22;2860;54.284;10.158;2023-07-29T02:02:43;15.30;99.90
5675;DHT22;2860;54.284;10.158;2023-07-29T02:05:08;15.30;99.90
5675;DHT22;2860;54.284;10.158;2023-07-29T02:07:34;15.30;99.90
5675;DHT22;2860;54.284;10.158;2023-07-29T02:09:59;15.30;99.90
5675;DHT22;2860;54.284;10.158;2023-07-29T02:12:25;15.40;99.90
5675;DHT22;2860;54.284;10.158;2023-07-29T02:14:50;15.40;99.90
5675;DHT22;2860;54.284;10.158;2023-07-29T02:17:16;15.40;99.90
5675;DHT22;2860;54.284;10.158;2023-07-29T02:19:42;15.40;99.90
5675;DHT22;2860;54.284;10.158;2023-07-29T02:22:07;15.40;99.90
5675;DHT22;2860;54.284;10.158;2023-07-29T02:24:33;15.40;99.90
5675;DHT22;2860;54.284;10.158;2023-07-29T02:26:58;15.40;99.90
5675;DHT22;2860;54.284;10.158;2023-07-29T02:29:24;15.40;99.90
5675;DHT22;2860;54.284;10.158;2023-07-29T02:31:50;15.40;99.90
5675;DHT22;2860;54.284;10.158;2023-07-29T02:34:16;15.40;99.90
5675;DHT22;2860;54.284;10.158;2023-07-29T02:36:41;15.40;99.90
5675;DHT22;2860;54.284;10.158;2023-07-29T02:39:07;15.40;99.90
5675;DHT22;2860;54.284;10.158;2023-07-29T02:41:32;15.40;99.90
5675;DHT22;2860;54.284;10.158;2023-07-29T02:43:58;15.40;99.90
5675;DHT22;2860;54.284;10.158;2023-07-29T02:46:24;15.40;99.90
5675;DHT22;2860;54.284;10.158;2023-07-29T02:48:50;15.40;99.90
5675;DHT22;2860;54.284;10.158;2023-07-29T02:51:15;15.50;99.90
5675;DHT22;2860;54.284;10.158;2023-07-29T02:53:41;15.50;99.90
5675;DHT22;2860;54.284;10.158;2023-07-29T02:56:07;15.50;99.90
5675;DHT22;2860;54.284;10.158;2023-07-29T02:58:34;15.50;99.90
5675;DHT22;2860;54.284;10.158;2023-07-29T03:01:01;15.50;99.90
5675;DHT22;2860;54.284;10.158;2023-07-29T03:03:27;15.50;99.90
5675;DHT22;2860;54.284;10.158;2023-07-29T03:06:03;15.50;99.90
5675;DHT22;2860;54.284;10.158;2023-07-29T03:08:30;15.60;99.90
5675;DHT22;2860;54.284;10.158;2023-07-29T03:10:56;15.60;99.90
5675;DHT22;2860;54.284;10.158;2023-07-29T03:13:22;15.60;99.90
5675;DHT22;2860;54.284;10.158;2023-07-29T03:15:48;15.60;99.90
5675;DHT22;2860;54.284;10.158;2023-07-29T03:18:14;15.60;99.90
5675;DHT22;2860;54.284;10.158;2023-07-29T03:20:40;15.60;99.90
5675;DHT22;2860;54.284;10.158;2023-07-29T03:23:05;15.60;99.90
5675;DHT22;2860;54.284;10.158;2023-07-29T03:25:31;15.60;99.90
5675;DHT22;2860;54.284;10.158;2023-07-29T03:27:56;15.60;99.90
5675;DHT22;2860;54.284;10.158;2023-07-29T03:30:22;15.60;99.90
5675;DHT22;2860;54.284;10.158;2023-07-29T03:32:49;15.60;99.90
5675;DHT22;2860;54.284;10.158;2023-07-29T03:35:15;15.60;99.90
5675;DHT22;2860;54.284;10.158;2023-07-29T03:37:43;15.60;99.90
5675;DHT22;2860;54.284;10.158;2023-07-29T03:40:09;15.60;99.90
5675;DHT22;2860;54.284;10.158;2023-07-29T03:42:35;15.60;99.90
5675;DHT22;2860;54.284;10.158;2023-07-29T03:45:01;15.70;99.90
5675;DHT22;2860;54.284;10.158;2023-07-29T03:47:27;15.70;99.90
5675;DHT22;2860;54.284;10.158;2023-07-29T03:49:52;15.70;99.90
5675;DHT22;2860;54.284;10.158;2023-07-29T03:52:18;15.70;99.90
5675;DHT22;2860;54.284;10.158;2023-07-29T03:54:44;15.80;99.90
5675;DHT22;2860;54.284;10.158;2023-07-29T03:57:09;15.80;99.90
5675;DHT22;2860;54.284;10.158;2023-07-29T03:59:35;15.80;99.90
5675;DHT22;2860;54.284;10.158;2023-07-29T04:02:00;15.80;99.90
5675;DHT22;2860;54.284;10.158;2023-07-29T04:04:26;15.90;99.90
5675;DHT22;2860;54.284;10.158;2023-07-29T04:06:51;15.90;99.90
5675;DHT22;2860;54.284;10.158;2023-07-29T04:09:17;15.90;99.90
5675;DHT22;2860;54.284;10.158;2023-07-29T04:11:43;15.90;99.90
5675;DHT22;2860;54.284;10.158;2023-07-29T04:14:08;15.90;99.90
5675;DHT22;2860;54.284;10.158;2023-07-29T04:16:34;15.90;99.90
5675;DHT22;2860;54.284;10.158;2023-07-29T04:18:59;15.90;99.90
5675;DHT22;2860;54.284;10.158;2023-07-29T04:21:25;15.90;99.90
5675;DHT22;2860;54.284;10.158;2023-07-29T04:23:50;16.00;99.90
5675;DHT22;2860;54.284;10.158;2023-07-29T04:26:16;16.00;99.90
5675;DHT22;2860;54.284;10.158;2023-07-29T04:28:42;16.00;99.90
5675;DHT22;2860;54.284;10.158;2023-07-29T04:31:08;16.00;99.90
5675;DHT22;2860;54.284;10.158;2023-07-29T04:33:33;16.00;99.90
5675;DHT22;2860;54.284;10.158;2023-07-29T04:35:59;16.00;99.90
5675;DHT22;2860;54.284;10.158;2023-07-29T04:38:30;16.00;99.90
5675;DHT22;2860;54.284;10.158;2023-07-29T04:40:56;16.00;99.90
5675;DHT22;2860;54.284;10.158;2023-07-29T04:43:22;16.00;99.90
5675;DHT22;2860;54.284;10.158;2023-07-29T04:45:47;16.00;99.90
5675;DHT22;2860;54.284;10.158;2023-07-29T04:48:13;16.00;99.90
5675;DHT22;2860;54.284;10.158;2023-07-29T04:50:39;16.00;99.90
5675;DHT22;2860;54.284;10.158;2023-07-29T04:53:04;16.00;99.90
5675;DHT22;2860;54.284;10.158;2023-07-29T04:55:30;16.00;99.90
5675;DHT22;2860;54.284;10.158;2023-07-29T04:57:55;16.00;99.90
5675;DHT22;2860;54.284;10.158;2023-07-29T05:00:21;16.00;99.90
5675;DHT22;2860;54.284;10.158;2023-07-29T05:02:47;16.00;99.90
5675;DHT22;2860;54.284;10.158;2023-07-29T05:05:12;16.10;99.90
5675;DHT22;2860;54.284;10.158;2023-07-29T05:07:38;16.10;99.90
5675;DHT22;2860;54.284;10.158;2023-07-29T05:10:04;16.10;99.90
5675;DHT22;2860;54.284;10.158;2023-07-29T05:12:29;16.10;99.90
5675;DHT22;2860;54.284;10.158;2023-07-29T05:14:57;16.20;99.90
5675;DHT22;2860;54.284;10.158;2023-07-29T05:17:22;16.20;99.90
5675;DHT22;2860;54.284;10.158;2023-07-29T05:19:48;16.30;99.90
5675;DHT22;2860;54.284;10.158;2023-07-29T05:22:14;16.40;99.90
5675;DHT22;2860;54.284;10.158;2023-07-29T05:24:39;16.50;99.90
5675;DHT22;2860;54.284;10.158;2023-07-29T05:27:05;16.60;99.90
5675;DHT22;2860;54.284;10.158;2023-07-29T05:29:30;16.80;99.90
5675;DHT22;2860;54.284;10.158;2023-07-29T05:31:56;16.90;99.90
5675;DHT22;2860;54.284;10.158;2023-07-29T05:34:22;17.00;99.90
5675;DHT22;2860;54.284;10.158;2023-07-29T05:36:47;17.00;99.90
5675;DHT22;2860;54.284;10.158;2023-07-29T05:39:13;17.20;99.90
5675;DHT22;2860;54.284;10.158;2023-07-29T05:41:39;17.30;99.90
5675;DHT22;2860;54.284;10.158;2023-07-29T05:44:04;17.40;99.90
5675;DHT22;2860;54.284;10.158;2023-07-29T05:46:30;17.50;99.90
5675;DHT22;2860;54.284;10.158;2023-07-29T05:48:55;17.60;99.90
5675;DHT22;2860;54.284;10.158;2023-07-29T05:51:21;17.80;99.90
5675;DHT22;2860;54.284;10.158;2023-07-29T05:53:46;17.90;99.90
5675;DHT22;2860;54.284;10.158;2023-07-29T05:56:12;18.20;99.90
5675;DHT22;2860;54.284;10.158;2023-07-29T05:58:38;18.40;99.90
5675;DHT22;2860;54.284;10.158;2023-07-29T06:01:03;18.50;99.90
5675;DHT22;2860;54.284;10.158;2023-07-29T06:03:29;18.70;99.90
5675;DHT22;2860;54.284;10.158;2023-07-29T06:05:54;19.00;99.90
5675;DHT22;2860;54.284;10.158;2023-07-29T06:08:20;19.30;99.90
5675;DHT22;2860;54.284;10.158;2023-07-29T06:10:45;19.60;99.90
5675;DHT22;2860;54.284;10.158;2023-07-29T06:13:14;20.00;99.90
5675;DHT22;2860;54.284;10.158;2023-07-29T06:15:48;20.50;99.90
5675;DHT22;2860;54.284;10.158;2023-07-29T06:18:15;20.90;99.90
5675;DHT22;2860;54.284;10.158;2023-07-29T06:20:40;21.20;99.90
5675;DHT22;2860;54.284;10.158;2023-07-29T06:23:07;21.40;99.90
5675;DHT22;2860;54.284;10.158;2023-07-29T06:25:33;21.60;99.90
5675;DHT22;2860;54.284;10.158;2023-07-29T06:27:59;21.80;99.90
5675;DHT22;2860;54.284;10.158;2023-07-29T06:30:24;22.10;99.90
5675;DHT22;2860;54.284;10.158;2023-07-29T06:32:50;22.20;99.90
5675;DHT22;2860;54.284;10.158;2023-07-29T06:35:15;22.30;99.90
5675;DHT22;2860;54.284;10.158;2023-07-29T06:37:40;22.20;99.90
5675;DHT22;2860;54.284;10.158;2023-07-29T06:40:07;22.20;99.90
5675;DHT22;2860;54.284;10.158;2023-07-29T06:42:32;22.10;99.90
5675;DHT22;2860;54.284;10.158;2023-07-29T06:44:58;21.80;99.90
5675;DHT22;2860;54.284;10.158;2023-07-29T06:47:29;21.60;99.90
5675;DHT22;2860;54.284;10.158;2023-07-29T06:49:54;21.40;99.90
5675;DHT22;2860;54.284;10.158;2023-07-29T06:52:20;21.20;99.90
5675;DHT22;2860;54.284;10.158;2023-07-29T06:54:45;21.00;99.90
5675;DHT22;2860;54.284;10.158;2023-07-29T06:57:11;20.90;99.90
5675;DHT22;2860;54.284;10.158;2023-07-29T06:59:36;20.70;99.90
5675;DHT22;2860;54.284;10.158;2023-07-29T07:02:02;20.70;99.90
5675;DHT22;2860;54.284;10.158;2023-07-29T07:04:28;20.60;99.90
5675;DHT22;2860;54.284;10.158;2023-07-29T07:06:53;20.60;99.90
5675;DHT22;2860;54.284;10.158;2023-07-29T07:09:19;20.50;99.90
5675;DHT22;2860;54.284;10.158;2023-07-29T07:11:45;20.50;99.90
5675;DHT22;2860;54.284;10.158;2023-07-29T07:14:10;20.60;99.90
5675;DHT22;2860;54.284;10.158;2023-07-29T07:16:36;20.80;99.90
5675;DHT22;2860;54.284;10.158;2023-07-29T07:19:02;21.00;99.90
5675;DHT22;2860;54.284;10.158;2023-07-29T07:21:28;21.30;99.90
5675;DHT22;2860;54.284;10.158;2023-07-29T07:23:53;21.50;99.90
5675;DHT22;2860;54.284;10.158;2023-07-29T07:26:19;21.50;99.90
5675;DHT22;2860;54.284;10.158;2023-07-29T07:28:44;21.50;99.90
5675;DHT22;2860;54.284;10.158;2023-07-29T07:31:10;21.40;99.90
5675;DHT22;2860;54.284;10.158;2023-07-29T07:33:35;21.40;99.90
5675;DHT22;2860;54.284;10.158;2023-07-29T07:36:01;21.30;99.90
5675;DHT22;2860;54.284;10.158;2023-07-29T07:38:26;21.30;99.90
5675;DHT22;2860;54.284;10.158;2023-07-29T07:40:55;21.40;99.90
5675;DHT22;2860;54.284;10.158;2023-07-29T07:43:22;21.40;99.90
5675;DHT22;2860;54.284;10.158;2023-07-29T07:45:48;21.30;99.90
5675;DHT22;2860;54.284;10.158;2023-07-29T07:48:13;21.30;99.90
5675;DHT22;2860;54.284;10.158;2023-07-29T07:50:39;21.30;99.90
5675;DHT22;2860;54.284;10.158;2023-07-29T07:53:05;21.30;99.90
5675;DHT22;2860;54.284;10.158;2023-07-29T07:55:30;21.40;99.90
5675;DHT22;2860;54.284;10.158;2023-07-29T07:57:56;21.50;99.90
5675;DHT22;2860;54.284;10.158;2023-07-29T08:00:21;21.70;99.90
5675;DHT22;2860;54.284;10.158;2023-07-29T08:02:47;21.80;99.90
5675;DHT22;2860;54.284;10.158;2023-07-29T08:05:12;21.90;99.90
5675;DHT22;2860;54.284;10.158;2023-07-29T08:07:38;22.00;99.90
5675;DHT22;2860;54.284;10.158;2023-07-29T08:10:04;22.00;99.90
5675;DHT22;2860;54.284;10.158;2023-07-29T08:12:29;22.00;99.90
5675;DHT22;2860;54.284;10.158;2023-07-29T08:14:55;22.00;99.90
5675;DHT22;2860;54.284;10.158;2023-07-29T08:20:29;21.80;99.90
5675;DHT22;2860;54.284;10.158;2023-07-29T08:22:55;21.70;99.90
5675;DHT22;2860;54.284;10.158;2023-07-29T08:25:20;21.60;99.90
5675;DHT22;2860;54.284;10.158;2023-07-29T08:27:46;21.70;99.90
5675;DHT22;2860;54.284;10.158;2023-07-29T08:30:12;21.70;99.90
5675;DHT22;2860;54.284;10.158;2023-07-29T08:32:37;21.80;99.90
5675;DHT22;2860;54.284;10.158;2023-07-29T08:35:03;22.00;99.90
5675;DHT22;2860;54.284;10.158;2023-07-29T08:37:29;22.00;99.90
5675;DHT22;2860;54.284;10.158;2023-07-29T08:39:54;22.20;99.90
5675;DHT22;2860;54.284;10.158;2023-07-29T08:42:21;22.20;99.90
5675;DHT22;2860;54.284;10.158;2023-07-29T08:44:49;22.20;99.90
5675;DHT22;2860;54.284;10.158;2023-07-29T08:47:14;22.20;99.90
5675;DHT22;2860;54.284;10.158;2023-07-29T08:49:41;22.30;99.90
5675;DHT22;2860;54.284;10.158;2023-07-29T08:52:07;22.40;99.90
5675;DHT22;2860;54.284;10.158;2023-07-29T08:54:33;22.60;99.90
5675;DHT22;2860;54.284;10.158;2023-07-29T08:56:59;22.90;99.90
5675;DHT22;2860;54.284;10.158;2023-07-29T08:59:26;23.10;99.90
5675;DHT22;2860;54.284;10.158;2023-07-29T09:01:54;23.30;99.90
5675;DHT22;2860;54.284;10.158;2023-07-29T09:04:22;23.50;99.90
5675;DHT22;2860;54.284;10.158;2023-07-29T09:06:50;23.60;99.90
5675;DHT22;2860;54.284;10.158;2023-07-29T09:09:16;23.80;99.90
5675;DHT22;2860;54.284;10.158;2023-07-29T09:11:41;24.00;99.90
5675;DHT22;2860;54.284;10.158;2023-07-29T09:14:07;24.40;99.90
5675;DHT22;2860;54.284;10.158;2023-07-29T09:16:33;24.60;99.90
5675;DHT22;2860;54.284;10.158;2023-07-29T09:19:02;24.80;99.90
5675;DHT22;2860;54.284;10.158;2023-07-29T09:21:29;25.00;99.90
5675;DHT22;2860;54.284;10.158;2023-07-29T09:23:55;25.00;99.90
5675;DHT22;2860;54.284;10.158;2023-07-29T09:26:26;24.90;99.90
5675;DHT22;2860;54.284;10.158;2023-07-29T09:28:57;24.70;99.90
5675;DHT22;2860;54.284;10.158;2023-07-29T09:31:24;24.70;99.90
5675;DHT22;2860;54.284;10.158;2023-07-29T09:33:55;24.90;99.90
5675;DHT22;2860;54.284;10.158;2023-07-29T09:36:22;24.90;99.90
5675;DHT22;2860;54.284;10.158;2023-07-29T09:38:47;25.10;99.90
5675;DHT22;2860;54.284;10.158;2023-07-29T09:41:13;25.20;99.90
5675;DHT22;2860;54.284;10.158;2023-07-29T09:43:40;25.30;99.90
5675;DHT22;2860;54.284;10.158;2023-07-29T09:46:06;25.20;99.90
5675;DHT22;2860;54.284;10.158;2023-07-29T09:48:35;25.10;99.90
5675;DHT22;2860;54.284;10.158;2023-07-29T09:51:11;24.80;99.90
5675;DHT22;2860;54.284;10.158;2023-07-29T09:53:44;24.40;99.90
5675;DHT22;2860;54.284;10.158;2023-07-29T09:56:10;23.90;99.90
5675;DHT22;2860;54.284;10.158;2023-07-29T09:58:36;23.90;99.90
5675;DHT22;2860;54.284;10.158;2023-07-29T10:01:04;24.00;99.90
5675;DHT22;2860;54.284;10.158;2023-07-29T10:03:30;24.30;99.90
5675;DHT22;2860;54.284;10.158;2023-07-29T10:06:00;24.70;99.90
5675;DHT22;2860;54.284;10.158;2023-07-29T10:08:27;25.10;99.90
5675;DHT22;2860;54.284;10.158;2023-07-29T10:10:54;25.30;99.90
5675;DHT22;2860;54.284;10.158;2023-07-29T10:13:20;25.60;99.90
5675;DHT22;2860;54.284;10.158;2023-07-29T10:15:46;25.40;99.90
5675;DHT22;2860;54.284;10.158;2023-07-29T10:18:12;24.80;99.90
5675;DHT22;2860;54.284;10.158;2023-07-29T10:20:39;24.30;99.90
5675;DHT22;2860;54.284;10.158;2023-07-29T10:23:07;24.00;99.90
5675;DHT22;2860;54.284;10.158;2023-07-29T10:25:38;23.80;99.90
5675;DHT22;2860;54.284;10.158;2023-07-29T10:28:08;23.50;99.90
5675;DHT22;2860;54.284;10.158;2023-07-29T10:30:38;23.40;99.90
5675;DHT22;2860;54.284;10.158;2023-07-29T10:33:04;23.20;99.90
5675;DHT22;2860;54.284;10.158;2023-07-29T10:35:34;23.00;99.90
5675;DHT22;2860;54.284;10.158;2023-07-29T10:38:01;23.00;99.90
5675;DHT22;2860;54.284;10.158;2023-07-29T10:40:46;22.80;99.90
5675;DHT22;2860;54.284;10.158;2023-07-29T10:43:13;22.80;99.90
5675;DHT22;2860;54.284;10.158;2023-07-29T10:45:43;23.10;99.90
5675;DHT22;2860;54.284;10.158;2023-07-29T10:48:13;23.30;99.90
5675;DHT22;2860;54.284;10.158;2023-07-29T10:51:23;23.60;99.90
5675;DHT22;2860;54.284;10.158;2023-07-29T10:56:34;24.60;99.90
5675;DHT22;2860;54.284;10.158;2023-07-29T11:01:42;25.00;99.90
5675;DHT22;2860;54.284;10.158;2023-07-29T11:12:39;24.60;99.90
5675;DHT22;2860;54.284;10.158;2023-07-29T11:20:12;24.10;99.90
5675;DHT22;2860;54.284;10.158;2023-07-29T11:22:38;23.70;99.90
5675;DHT22;2860;54.284;10.158;2023-07-29T11:25:05;23.80;99.90
5675;DHT22;2860;54.284;10.158;2023-07-29T11:27:32;24.10;99.90
5675;DHT22;2860;54.284;10.158;2023-07-29T11:29:59;24.20;99.90
5675;DHT22;2860;54.284;10.158;2023-07-29T11:32:25;24.30;99.90
5675;DHT22;2860;54.284;10.158;2023-07-29T11:34:51;24.20;99.90
5675;DHT22;2860;54.284;10.158;2023-07-29T11:37:17;24.20;99.90
5675;DHT22;2860;54.284;10.158;2023-07-29T11:39:43;24.30;99.90
5675;DHT22;2860;54.284;10.158;2023-07-29T11:42:12;24.40;99.90
5675;DHT22;2860;54.284;10.158;2023-07-29T11:44:38;24.70;99.90
5675;DHT22;2860;54.284;10.158;2023-07-29T11:47:12;24.90;99.90
5675;DHT22;2860;54.284;10.158;2023-07-29T11:49:39;25.20;99.90
5675;DHT22;2860;54.284;10.158;2023-07-29T11:52:09;25.40;99.90
5675;DHT22;2860;54.284;10.158;2023-07-29T11:54:36;25.70;99.90
5675;DHT22;2860;54.284;10.158;2023-07-29T11:57:11;26.00;99.90
5675;DHT22;2860;54.284;10.158;2023-07-29T11:59:37;26.00;99.90
5675;DHT22;2860;54.284;10.158;2023-07-29T12:02:29;25.60;99.90
5675;DHT22;2860;54.284;10.158;2023-07-29T12:04:56;25.30;99.90
5675;DHT22;2860;54.284;10.158;2023-07-29T12:07:22;25.10;99.90
5675;DHT22;2860;54.284;10.158;2023-07-29T12:09:49;25.00;99.90
5675;DHT22;2860;54.284;10.158;2023-07-29T12:12:15;25.00;99.90
5675;DHT22;2860;54.284;10.158;2023-07-29T12:14:45;25.00;99.90
5675;DHT22;2860;54.284;10.158;2023-07-29T12:17:11;24.80;99.90
5675;DHT22;2860;54.284;10.158;2023-07-29T12:19:38;24.50;99.90
5675;DHT22;2860;54.284;10.158;2023-07-29T12:22:06;24.60;99.90
5675;DHT22;2860;54.284;10.158;2023-07-29T12:24:37;24.80;99.90
5675;DHT22;2860;54.284;10.158;2023-07-29T12:27:03;24.90;99.90
5675;DHT22;2860;54.284;10.158;2023-07-29T12:29:29;25.00;99.90
5675;DHT22;2860;54.284;10.158;2023-07-29T12:32:02;25.00;99.90
5675;DHT22;2860;54.284;10.158;2023-07-29T12:34:29;24.80;99.90
5675;DHT22;2860;54.284;10.158;2023-07-29T12:36:56;24.50;99.90
5675;DHT22;2860;54.284;10.158;2023-07-29T12:39:28;24.30;99.90
5675;DHT22;2860;54.284;10.158;2023-07-29T12:41:55;24.20;99.90
5675;DHT22;2860;54.284;10.158;2023-07-29T12:44:22;24.10;99.90
5675;DHT22;2860;54.284;10.158;2023-07-29T12:46:48;24.40;99.90
5675;DHT22;2860;54.284;10.158;2023-07-29T12:49:13;24.70;99.90
5675;DHT22;2860;54.284;10.158;2023-07-29T12:51:39;24.90;99.90
5675;DHT22;2860;54.284;10.158;2023-07-29T12:54:05;25.10;99.90
5675;DHT22;2860;54.284;10.158;2023-07-29T12:56:31;24.90;99.90
5675;DHT22;2860;54.284;10.158;2023-07-29T12:58:58;24.50;99.90
5675;DHT22;2860;54.284;10.158;2023-07-29T13:01:24;24.10;99.90
5675;DHT22;2860;54.284;10.158;2023-07-29T13:03:49;23.90;99.90
5675;DHT22;2860;54.284;10.158;2023-07-29T13:06:15;23.70;99.90
5675;DHT22;2860;54.284;10.158;2023-07-29T13:08:41;23.60;99.90
5675;DHT22;2860;54.284;10.158;2023-07-29T13:11:07;23.60;99.90
5675;DHT22;2860;54.284;10.158;2023-07-29T13:13:33;23.80;99.90
5675;DHT22;2860;54.284;10.158;2023-07-29T13:15:59;24.20;99.90
5675;DHT22;2860;54.284;10.158;2023-07-29T13:18:24;24.40;99.90
5675;DHT22;2860;54.284;10.158;2023-07-29T13:20:50;24.30;99.90
5675;DHT22;2860;54.284;10.158;2023-07-29T13:23:16;24.10;99.90
5675;DHT22;2860;54.284;10.158;2023-07-29T13:25:42;24.20;99.90
5675;DHT22;2860;54.284;10.158;2023-07-29T13:28:09;24.30;99.90
5675;DHT22;2860;54.284;10.158;2023-07-29T13:30:35;24.30;99.90
5675;DHT22;2860;54.284;10.158;2023-07-29T13:33:00;24.10;99.90
5675;DHT22;2860;54.284;10.158;2023-07-29T13:35:26;24.10;99.90
5675;DHT22;2860;54.284;10.158;2023-07-29T13:37:51;24.10;99.90
5675;DHT22;2860;54.284;10.158;2023-07-29T13:40:17;24.10;99.90
5675;DHT22;2860;54.284;10.158;2023-07-29T13:42:42;23.90;99.90
5675;DHT22;2860;54.284;10.158;2023-07-29T13:45:08;23.80;99.90
5675;DHT22;2860;54.284;10.158;2023-07-29T13:47:34;23.90;99.90
5675;DHT22;2860;54.284;10.158;2023-07-29T13:50:00;24.10;99.90
5675;DHT22;2860;54.284;10.158;2023-07-29T13:52:26;24.20;99.90
5675;DHT22;2860;54.284;10.158;2023-07-29T13:54:51;24.40;99.90
5675;DHT22;2860;54.284;10.158;2023-07-29T13:57:17;24.40;99.90
5675;DHT22;2860;54.284;10.158;2023-07-29T13:59:42;24.30;99.90
5675;DHT22;2860;54.284;10.158;2023-07-29T14:02:08;24.30;99.90
5675;DHT22;2860;54.284;10.158;2023-07-29T14:04:34;24.00;99.90
5675;DHT22;2860;54.284;10.158;2023-07-29T14:07:00;23.90;99.90
5675;DHT22;2860;54.284;10.158;2023-07-29T14:09:26;23.80;99.90
5675;DHT22;2860;54.284;10.158;2023-07-29T14:11:52;23.70;99.90
5675;DHT22;2860;54.284;10.158;2023-07-29T14:14:17;23.80;99.90
5675;DHT22;2860;54.284;10.158;2023-07-29T14:16:43;23.80;99.90
5675;DHT22;2860;54.284;10.158;2023-07-29T14:19:08;23.90;99.90
5675;DHT22;2860;54.284;10.158;2023-07-29T14:21:34;23.90;99.90
5675;DHT22;2860;54.284;10.158;2023-07-29T14:24:00;23.60;99.90
5675;DHT22;2860;54.284;10.158;2023-07-29T14:26:25;23.40;99.90
5675;DHT22;2860;54.284;10.158;2023-07-29T14:28:51;23.40;99.90
5675;DHT22;2860;54.284;10.158;2023-07-29T14:31:16;23.60;99.90
5675;DHT22;2860;54.284;10.158;2023-07-29T14:33:43;23.60;99.90
5675;DHT22;2860;54.284;10.158;2023-07-29T14:36:09;23.50;99.90
5675;DHT22;2860;54.284;10.158;2023-07-29T14:38:35;23.50;99.90
5675;DHT22;2860;54.284;10.158;2023-07-29T14:41:00;23.70;99.90
5675;DHT22;2860;54.284;10.158;2023-07-29T14:43:26;23.80;99.90
5675;DHT22;2860;54.284;10.158;2023-07-29T14:45:51;23.90;99.90
5675;DHT22;2860;54.284;10.158;2023-07-29T14:48:17;24.10;99.90
5675;DHT22;2860;54.284;10.158;2023-07-29T14:50:42;24.20;99.90
5675;DHT22;2860;54.284;10.158;2023-07-29T14:53:09;24.30;99.90
5675;DHT22;2860;54.284;10.158;2023-07-29T14:55:36;24.40;99.90
5675;DHT22;2860;54.284;10.158;2023-07-29T14:58:01;24.50;99.90
5675;DHT22;2860;54.284;10.158;2023-07-29T15:00:27;24.40;99.90
5675;DHT22;2860;54.284;10.158;2023-07-29T15:02:53;24.30;99.90
5675;DHT22;2860;54.284;10.158;2023-07-29T15:05:18;24.30;99.90
5675;DHT22;2860;54.284;10.158;2023-07-29T15:07:44;24.40;99.90
5675;DHT22;2860;54.284;10.158;2023-07-29T15:10:09;24.20;99.90
5675;DHT22;2860;54.284;10.158;2023-07-29T15:12:35;24.10;99.90
5675;DHT22;2860;54.284;10.158;2023-07-29T15:15:00;24.10;99.90
5675;DHT22;2860;54.284;10.158;2023-07-29T15:17:26;24.00;99.90
5675;DHT22;2860;54.284;10.158;2023-07-29T15:19:51;24.00;99.90
5675;DHT22;2860;54.284;10.158;2023-07-29T15:22:17;24.20;99.90
5675;DHT22;2860;54.284;10.158;2023-07-29T15:24:42;23.90;99.90
5675;DHT22;2860;54.284;10.158;2023-07-29T15:27:10;23.70;99.90
5675;DHT22;2860;54.284;10.158;2023-07-29T15:29:35;23.70;99.90
5675;DHT22;2860;54.284;10.158;2023-07-29T15:32:01;23.70;99.90
5675;DHT22;2860;54.284;10.158;2023-07-29T15:34:26;23.90;99.90
5675;DHT22;2860;54.284;10.158;2023-07-29T15:36:57;24.10;99.90
5675;DHT22;2860;54.284;10.158;2023-07-29T15:39:22;24.20;99.90
5675;DHT22;2860;54.284;10.158;2023-07-29T15:41:48;24.20;99.90
5675;DHT22;2860;54.284;10.158;2023-07-29T15:44:13;24.20;99.90
5675;DHT22;2860;54.284;10.158;2023-07-29T15:46:39;24.30;99.90
5675;DHT22;2860;54.284;10.158;2023-07-29T15:49:04;24.10;99.90
5675;DHT22;2860;54.284;10.158;2023-07-29T15:51:30;24.00;99.90
5675;DHT22;2860;54.284;10.158;2023-07-29T15:53:56;24.00;99.90
5675;DHT22;2860;54.284;10.158;2023-07-29T15:56:21;23.90;99.90
5675;DHT22;2860;54.284;10.158;2023-07-29T15:58:47;23.90;99.90
5675;DHT22;2860;54.284;10.158;2023-07-29T16:01:12;23.90;99.90
5675;DHT22;2860;54.284;10.158;2023-07-29T16:03:38;23.70;99.90
5675;DHT22;2860;54.284;10.158;2023-07-29T16:06:06;23.50;99.90